sensor_id;sensor_type;location;lat;lon;timestamp;P1;durP1;ratioP1;P2;durP2;ratioP2
48552;SDS011;34335;51.566;6.994;2022-09-09T00:00:19;2.05;;;0.50;;
48552;SDS011;34335;51.566;6.994;2022-09-09T00:02:49;1.58;;;0.50;;
48552;SDS011;34335;51.566;6.994;2022-09-09T00:05:29;2.90;;;0.55;;
48552;SDS011;34335;51.566;6.994;2022-09-09T00:08:01;1.45;;;0.40;;
48552;SDS011;34335;51.566;6.994;2022-09-09T00:10:39;1.08;;;0.50;;
48552;SDS011;34335;51.566;6.994;2022-09-09T00:13:13;0.40;;;0.32;;
48552;SDS011;34335;51.566;6.994;2022-09-09T00:20:55;1.80;;;0.40;;
48552;SDS011;34335;51.566;6.994;2022-09-09T00:23:28;1.58;;;0.63;;
48552;SDS011;34335;51.566;6.994;2022-09-09T00:26:09;3.78;;;0.82;;
48552;SDS011;34335;51.566;6.994;2022-09-09T00:28:45;4.60;;;0.80;;
48552;SDS011;34335;51.566;6.994;2022-09-09T00:31:28;5.95;;;1.00;;
48552;SDS011;34335;51.566;6.994;2022-09-09T00:33:55;1.08;;;0.55;;
48552;SDS011;34335;51.566;6.994;2022-09-09T00:36:27;0.73;;;0.47;;
48552;SDS011;34335;51.566;6.994;2022-09-09T00:38:56;1.27;;;0.68;;
48552;SDS011;34335;51.566;6.994;2022-09-09T00:41:38;1.08;;;0.68;;
48552;SDS011;34335;51.566;6.994;2022-09-09T00:44:31;0.63;;;0.45;;
48552;SDS011;34335;51.566;6.994;2022-09-09T00:47:12;0.80;;;0.50;;
48552;SDS011;34335;51.566;6.994;2022-09-09T00:52:47;0.40;;;0.40;;
48552;SDS011;34335;51.566;6.994;2022-09-09T00:58:12;0.63;;;0.40;;
48552;SDS011;34335;51.566;6.994;2022-09-09T01:11:37;1.45;;;0.30;;
48552;SDS011;34335;51.566;6.994;2022-09-09T01:23:26;0.43;;;0.40;;
48552;SDS011;34335;51.566;6.994;2022-09-09T01:26:23;0.63;;;0.40;;
48552;SDS011;34335;51.566;6.994;2022-09-09T01:28:51;0.60;;;0.50;;
48552;SDS011;34335;51.566;6.994;2022-09-09T01:31:31;0.82;;;0.57;;
48552;SDS011;34335;51.566;6.994;2022-09-09T01:34:01;1.37;;;0.90;;
48552;SDS011;34335;51.566;6.994;2022-09-09T01:36:29;0.87;;;0.63;;
48552;SDS011;34335;51.566;6.994;2022-09-09T01:39:00;1.27;;;0.60;;
48552;SDS011;34335;51.566;6.994;2022-09-09T01:41:26;1.48;;;0.90;;
48552;SDS011;34335;51.566;6.994;2022-09-09T01:43:52;1.13;;;0.70;;
48552;SDS011;34335;51.566;6.994;2022-09-09T01:46:20;1.63;;;0.90;;
48552;SDS011;34335;51.566;6.994;2022-09-09T01:48:47;1.05;;;0.65;;
48552;SDS011;34335;51.566;6.994;2022-09-09T01:51:14;2.97;;;1.02;;
48552;SDS011;34335;51.566;6.994;2022-09-09T01:53:40;0.88;;;0.60;;
48552;SDS011;34335;51.566;6.994;2022-09-09T01:56:14;5.30;;;1.40;;
48552;SDS011;34335;51.566;6.994;2022-09-09T02:04:12;1.15;;;0.80;;
48552;SDS011;34335;51.566;6.994;2022-09-09T02:06:53;0.68;;;0.52;;
48552;SDS011;34335;51.566;6.994;2022-09-09T02:09:22;1.08;;;0.60;;
48552;SDS011;34335;51.566;6.994;2022-09-09T02:11:52;1.17;;;0.57;;
48552;SDS011;34335;51.566;6.994;2022-09-09T02:14:27;1.52;;;0.70;;
48552;SDS011;34335;51.566;6.994;2022-09-09T02:16:57;1.00;;;0.50;;
48552;SDS011;34335;51.566;6.994;2022-09-09T02:19:35;1.20;;;0.60;;
48552;SDS011;34335;51.566;6.994;2022-09-09T02:22:04;0.70;;;0.52;;
48552;SDS011;34335;51.566;6.994;2022-09-09T02:24:32;1.30;;;0.45;;
48552;SDS011;34335;51.566;6.994;2022-09-09T02:27:01;1.08;;;0.57;;
48552;SDS011;34335;51.566;6.994;2022-09-09T02:29:33;0.80;;;0.40;;
48552;SDS011;34335;51.566;6.994;2022-09-09T02:32:01;1.17;;;0.47;;
48552;SDS011;34335;51.566;6.994;2022-09-09T02:34:31;2.67;;;0.98;;
48552;SDS011;34335;51.566;6.994;2022-09-09T02:37:01;2.60;;;0.60;;
48552;SDS011;34335;51.566;6.994;2022-09-09T02:39:28;1.25;;;0.60;;
48552;SDS011;34335;51.566;6.994;2022-09-09T02:41:54;2.58;;;0.75;;
48552;SDS011;34335;51.566;6.994;2022-09-09T02:44:19;1.73;;;0.83;;
48552;SDS011;34335;51.566;6.994;2022-09-09T02:49:43;0.45;;;0.35;;
48552;SDS011;34335;51.566;6.994;2022-09-09T02:52:15;1.02;;;0.60;;
48552;SDS011;34335;51.566;6.994;2022-09-09T02:54:43;1.48;;;0.60;;
48552;SDS011;34335;51.566;6.994;2022-09-09T02:57:28;0.35;;;0.30;;
48552;SDS011;34335;51.566;6.994;2022-09-09T02:59:57;0.38;;;0.38;;
48552;SDS011;34335;51.566;6.994;2022-09-09T03:02:23;0.68;;;0.50;;
48552;SDS011;34335;51.566;6.994;2022-09-09T03:04:50;0.47;;;0.40;;
48552;SDS011;34335;51.566;6.994;2022-09-09T03:07:17;4.05;;;0.55;;
48552;SDS011;34335;51.566;6.994;2022-09-09T03:09:43;0.98;;;0.50;;
48552;SDS011;34335;51.566;6.994;2022-09-09T03:12:09;2.33;;;0.70;;
48552;SDS011;34335;51.566;6.994;2022-09-09T03:14:36;1.73;;;0.70;;
48552;SDS011;34335;51.566;6.994;2022-09-09T03:17:03;2.53;;;0.60;;
48552;SDS011;34335;51.566;6.994;2022-09-09T03:19:29;0.55;;;0.40;;
48552;SDS011;34335;51.566;6.994;2022-09-09T03:21:54;1.13;;;0.50;;
48552;SDS011;34335;51.566;6.994;2022-09-09T03:24:20;1.03;;;0.50;;
48552;SDS011;34335;51.566;6.994;2022-09-09T03:26:46;0.70;;;0.40;;
48552;SDS011;34335;51.566;6.994;2022-09-09T03:29:12;0.93;;;0.60;;
48552;SDS011;34335;51.566;6.994;2022-09-09T03:31:38;2.47;;;0.80;;
48552;SDS011;34335;51.566;6.994;2022-09-09T03:34:04;1.35;;;0.68;;
48552;SDS011;34335;51.566;6.994;2022-09-09T03:36:30;1.73;;;0.65;;
48552;SDS011;34335;51.566;6.994;2022-09-09T03:38:55;2.38;;;0.60;;
48552;SDS011;34335;51.566;6.994;2022-09-09T03:41:21;1.13;;;0.60;;
48552;SDS011;34335;51.566;6.994;2022-09-09T03:43:49;1.08;;;0.55;;
48552;SDS011;34335;51.566;6.994;2022-09-09T03:46:18;1.63;;;0.80;;
48552;SDS011;34335;51.566;6.994;2022-09-09T03:48:44;2.85;;;0.70;;
48552;SDS011;34335;51.566;6.994;2022-09-09T03:51:09;1.60;;;0.60;;
48552;SDS011;34335;51.566;6.994;2022-09-09T03:53:35;0.88;;;0.57;;
48552;SDS011;34335;51.566;6.994;2022-09-09T03:56:02;0.40;;;0.40;;
48552;SDS011;34335;51.566;6.994;2022-09-09T03:58:28;2.90;;;0.73;;
48552;SDS011;34335;51.566;6.994;2022-09-09T04:00:57;2.53;;;0.85;;
48552;SDS011;34335;51.566;6.994;2022-09-09T04:03:28;2.10;;;0.68;;
48552;SDS011;34335;51.566;6.994;2022-09-09T04:05:54;3.17;;;0.75;;
48552;SDS011;34335;51.566;6.994;2022-09-09T04:08:21;0.82;;;0.50;;
48552;SDS011;34335;51.566;6.994;2022-09-09T04:10:47;1.25;;;0.70;;
48552;SDS011;34335;51.566;6.994;2022-09-09T04:13:15;1.58;;;0.80;;
48552;SDS011;34335;51.566;6.994;2022-09-09T04:15:42;2.10;;;0.90;;
48552;SDS011;34335;51.566;6.994;2022-09-09T04:18:08;1.52;;;0.68;;
48552;SDS011;34335;51.566;6.994;2022-09-09T04:20:34;1.05;;;0.60;;
48552;SDS011;34335;51.566;6.994;2022-09-09T04:23:00;3.20;;;0.80;;
48552;SDS011;34335;51.566;6.994;2022-09-09T04:25:25;3.65;;;1.00;;
48552;SDS011;34335;51.566;6.994;2022-09-09T04:27:54;1.52;;;0.73;;
48552;SDS011;34335;51.566;6.994;2022-09-09T04:30:21;2.60;;;0.88;;
48552;SDS011;34335;51.566;6.994;2022-09-09T04:32:47;0.88;;;0.60;;
48552;SDS011;34335;51.566;6.994;2022-09-09T04:35:12;2.08;;;0.65;;
48552;SDS011;34335;51.566;6.994;2022-09-09T04:37:37;3.50;;;0.88;;
48552;SDS011;34335;51.566;6.994;2022-09-09T04:40:03;1.00;;;0.87;;
48552;SDS011;34335;51.566;6.994;2022-09-09T04:42:28;1.42;;;0.73;;
48552;SDS011;34335;51.566;6.994;2022-09-09T04:44:53;3.87;;;1.10;;
48552;SDS011;34335;51.566;6.994;2022-09-09T04:47:19;4.93;;;1.45;;
48552;SDS011;34335;51.566;6.994;2022-09-09T04:49:44;7.10;;;3.53;;
48552;SDS011;34335;51.566;6.994;2022-09-09T04:52:10;13.47;;;5.73;;
48552;SDS011;34335;51.566;6.994;2022-09-09T04:54:35;19.50;;;6.73;;
48552;SDS011;34335;51.566;6.994;2022-09-09T04:57:00;11.07;;;6.07;;
48552;SDS011;34335;51.566;6.994;2022-09-09T04:59:26;17.00;;;8.88;;
48552;SDS011;34335;51.566;6.994;2022-09-09T05:01:51;11.35;;;5.60;;
48552;SDS011;34335;51.566;6.994;2022-09-09T05:04:16;9.90;;;5.80;;
48552;SDS011;34335;51.566;6.994;2022-09-09T05:06:42;11.50;;;6.27;;
48552;SDS011;34335;51.566;6.994;2022-09-09T05:09:07;11.23;;;6.55;;
48552;SDS011;34335;51.566;6.994;2022-09-09T05:11:33;14.57;;;7.75;;
48552;SDS011;34335;51.566;6.994;2022-09-09T05:14:03;13.50;;;8.30;;
48552;SDS011;34335;51.566;6.994;2022-09-09T05:16:29;14.65;;;6.28;;
48552;SDS011;34335;51.566;6.994;2022-09-09T05:18:55;13.27;;;7.60;;
48552;SDS011;34335;51.566;6.994;2022-09-09T05:21:21;11.15;;;6.97;;
48552;SDS011;34335;51.566;6.994;2022-09-09T05:23:48;13.05;;;6.90;;
48552;SDS011;34335;51.566;6.994;2022-09-09T05:26:18;9.50;;;5.00;;
48552;SDS011;34335;51.566;6.994;2022-09-09T05:28:44;10.45;;;4.50;;
48552;SDS011;34335;51.566;6.994;2022-09-09T05:31:10;16.45;;;5.47;;
48552;SDS011;34335;51.566;6.994;2022-09-09T05:33:39;8.35;;;3.67;;
48552;SDS011;34335;51.566;6.994;2022-09-09T05:36:26;8.52;;;4.18;;
48552;SDS011;34335;51.566;6.994;2022-09-09T05:38:51;8.32;;;4.18;;
48552;SDS011;34335;51.566;6.994;2022-09-09T05:41:18;7.82;;;4.07;;
48552;SDS011;34335;51.566;6.994;2022-09-09T05:43:45;5.93;;;3.08;;
48552;SDS011;34335;51.566;6.994;2022-09-09T05:46:22;4.28;;;2.75;;
48552;SDS011;34335;51.566;6.994;2022-09-09T05:48:49;5.25;;;2.55;;
48552;SDS011;34335;51.566;6.994;2022-09-09T05:51:26;5.90;;;2.28;;
48552;SDS011;34335;51.566;6.994;2022-09-09T05:53:54;6.88;;;3.17;;
48552;SDS011;34335;51.566;6.994;2022-09-09T05:56:24;4.43;;;1.95;;
48552;SDS011;34335;51.566;6.994;2022-09-09T05:58:50;5.88;;;2.50;;
48552;SDS011;34335;51.566;6.994;2022-09-09T06:01:19;5.50;;;2.13;;
48552;SDS011;34335;51.566;6.994;2022-09-09T06:03:47;5.28;;;2.13;;
48552;SDS011;34335;51.566;6.994;2022-09-09T06:06:14;5.95;;;2.58;;
48552;SDS011;34335;51.566;6.994;2022-09-09T06:08:42;3.55;;;1.67;;
48552;SDS011;34335;51.566;6.994;2022-09-09T06:11:19;6.35;;;2.00;;
48552;SDS011;34335;51.566;6.994;2022-09-09T06:13:52;3.70;;;1.48;;
48552;SDS011;34335;51.566;6.994;2022-09-09T06:16:19;4.70;;;1.85;;
48552;SDS011;34335;51.566;6.994;2022-09-09T06:18:48;2.58;;;1.48;;
48552;SDS011;34335;51.566;6.994;2022-09-09T06:21:17;3.17;;;1.25;;
48552;SDS011;34335;51.566;6.994;2022-09-09T06:23:44;3.83;;;1.52;;
48552;SDS011;34335;51.566;6.994;2022-09-09T06:26:17;4.88;;;1.38;;
48552;SDS011;34335;51.566;6.994;2022-09-09T06:28:48;4.18;;;1.52;;
48552;SDS011;34335;51.566;6.994;2022-09-09T06:31:15;2.20;;;0.90;;
48552;SDS011;34335;51.566;6.994;2022-09-09T06:33:46;1.95;;;0.73;;
48552;SDS011;34335;51.566;6.994;2022-09-09T06:36:16;2.55;;;0.95;;
48552;SDS011;34335;51.566;6.994;2022-09-09T06:38:44;4.30;;;1.20;;
48552;SDS011;34335;51.566;6.994;2022-09-09T06:41:11;5.57;;;1.45;;
48552;SDS011;34335;51.566;6.994;2022-09-09T06:43:37;1.80;;;0.73;;
48552;SDS011;34335;51.566;6.994;2022-09-09T06:46:05;1.40;;;0.70;;
48552;SDS011;34335;51.566;6.994;2022-09-09T06:48:33;2.15;;;0.80;;
48552;SDS011;34335;51.566;6.994;2022-09-09T06:53:32;1.48;;;0.68;;
48552;SDS011;34335;51.566;6.994;2022-09-09T06:55:58;7.10;;;1.02;;
48552;SDS011;34335;51.566;6.994;2022-09-09T06:58:26;1.45;;;0.85;;
48552;SDS011;34335;51.566;6.994;2022-09-09T07:00:51;3.20;;;1.02;;
48552;SDS011;34335;51.566;6.994;2022-09-09T07:03:17;2.85;;;1.00;;
48552;SDS011;34335;51.566;6.994;2022-09-09T07:05:43;2.08;;;0.80;;
48552;SDS011;34335;51.566;6.994;2022-09-09T07:08:09;1.52;;;0.60;;
48552;SDS011;34335;51.566;6.994;2022-09-09T07:10:35;1.80;;;0.77;;
48552;SDS011;34335;51.566;6.994;2022-09-09T07:13:01;2.13;;;0.85;;
48552;SDS011;34335;51.566;6.994;2022-09-09T07:15:27;3.45;;;0.73;;
48552;SDS011;34335;51.566;6.994;2022-09-09T07:17:52;0.88;;;0.60;;
48552;SDS011;34335;51.566;6.994;2022-09-09T07:20:18;1.42;;;0.70;;
48552;SDS011;34335;51.566;6.994;2022-09-09T07:22:45;2.63;;;0.95;;
48552;SDS011;34335;51.566;6.994;2022-09-09T07:25:10;3.20;;;0.60;;
48552;SDS011;34335;51.566;6.994;2022-09-09T07:27:36;2.95;;;0.70;;
48552;SDS011;34335;51.566;6.994;2022-09-09T07:30:01;0.95;;;0.60;;
48552;SDS011;34335;51.566;6.994;2022-09-09T07:32:27;2.90;;;0.82;;
48552;SDS011;34335;51.566;6.994;2022-09-09T07:34:55;1.58;;;0.82;;
48552;SDS011;34335;51.566;6.994;2022-09-09T07:37:21;1.40;;;0.68;;
48552;SDS011;34335;51.566;6.994;2022-09-09T07:39:46;5.00;;;1.08;;
48552;SDS011;34335;51.566;6.994;2022-09-09T07:42:12;2.47;;;0.60;;
48552;SDS011;34335;51.566;6.994;2022-09-09T07:44:38;1.30;;;0.68;;
48552;SDS011;34335;51.566;6.994;2022-09-09T07:47:05;3.72;;;1.10;;
48552;SDS011;34335;51.566;6.994;2022-09-09T07:49:30;1.33;;;0.77;;
48552;SDS011;34335;51.566;6.994;2022-09-09T07:51:57;2.55;;;0.65;;
48552;SDS011;34335;51.566;6.994;2022-09-09T07:54:23;3.03;;;1.10;;
48552;SDS011;34335;51.566;6.994;2022-09-09T07:56:48;1.30;;;0.80;;
48552;SDS011;34335;51.566;6.994;2022-09-09T07:59:14;2.30;;;0.70;;
48552;SDS011;34335;51.566;6.994;2022-09-09T08:01:41;1.38;;;0.77;;
48552;SDS011;34335;51.566;6.994;2022-09-09T08:04:24;0.90;;;0.57;;
48552;SDS011;34335;51.566;6.994;2022-09-09T08:06:54;2.60;;;0.70;;
48552;SDS011;34335;51.566;6.994;2022-09-09T08:09:21;1.48;;;0.57;;
48552;SDS011;34335;51.566;6.994;2022-09-09T08:11:50;0.60;;;0.50;;
48552;SDS011;34335;51.566;6.994;2022-09-09T08:14:15;1.17;;;0.60;;
48552;SDS011;34335;51.566;6.994;2022-09-09T08:16:43;0.38;;;0.38;;
48552;SDS011;34335;51.566;6.994;2022-09-09T08:19:10;2.50;;;1.00;;
48552;SDS011;34335;51.566;6.994;2022-09-09T08:21:36;0.75;;;0.75;;
48552;SDS011;34335;51.566;6.994;2022-09-09T08:24:05;0.75;;;0.50;;
48552;SDS011;34335;51.566;6.994;2022-09-09T08:26:35;2.38;;;0.85;;
48552;SDS011;34335;51.566;6.994;2022-09-09T08:29:04;1.73;;;0.70;;
48552;SDS011;34335;51.566;6.994;2022-09-09T08:31:35;1.23;;;0.60;;
48552;SDS011;34335;51.566;6.994;2022-09-09T08:34:02;1.33;;;0.63;;
48552;SDS011;34335;51.566;6.994;2022-09-09T08:36:29;1.00;;;0.52;;
48552;SDS011;34335;51.566;6.994;2022-09-09T08:38:58;2.38;;;0.65;;
48552;SDS011;34335;51.566;6.994;2022-09-09T08:44:15;1.38;;;0.73;;
48552;SDS011;34335;51.566;6.994;2022-09-09T08:49:49;0.85;;;0.60;;
48552;SDS011;34335;51.566;6.994;2022-09-09T08:57:42;0.82;;;0.50;;
48552;SDS011;34335;51.566;6.994;2022-09-09T09:00:10;0.95;;;0.55;;
48552;SDS011;34335;51.566;6.994;2022-09-09T09:02:45;0.82;;;0.50;;
48552;SDS011;34335;51.566;6.994;2022-09-09T09:08:17;1.95;;;0.85;;
48552;SDS011;34335;51.566;6.994;2022-09-09T09:10:54;3.13;;;0.60;;
48552;SDS011;34335;51.566;6.994;2022-09-09T09:13:34;3.10;;;1.48;;
48552;SDS011;34335;51.566;6.994;2022-09-09T09:16:06;0.73;;;0.40;;
48552;SDS011;34335;51.566;6.994;2022-09-09T09:18:49;0.85;;;0.65;;
48552;SDS011;34335;51.566;6.994;2022-09-09T09:21:17;2.17;;;0.60;;
48552;SDS011;34335;51.566;6.994;2022-09-09T09:26:26;2.50;;;0.70;;
48552;SDS011;34335;51.566;6.994;2022-09-09T09:28:57;0.40;;;0.40;;
48552;SDS011;34335;51.566;6.994;2022-09-09T09:31:25;0.73;;;0.57;;
48552;SDS011;34335;51.566;6.994;2022-09-09T09:33:55;1.48;;;0.77;;
48552;SDS011;34335;51.566;6.994;2022-09-09T09:36:46;0.47;;;0.40;;
48552;SDS011;34335;51.566;6.994;2022-09-09T09:39:21;0.77;;;0.50;;
48552;SDS011;34335;51.566;6.994;2022-09-09T09:41:51;0.57;;;0.50;;
48552;SDS011;34335;51.566;6.994;2022-09-09T09:44:22;0.38;;;0.30;;
48552;SDS011;34335;51.566;6.994;2022-09-09T09:47:05;4.70;;;0.73;;
48552;SDS011;34335;51.566;6.994;2022-09-09T09:49:32;0.70;;;0.60;;
48552;SDS011;34335;51.566;6.994;2022-09-09T09:52:01;1.75;;;0.57;;
48552;SDS011;34335;51.566;6.994;2022-09-09T09:54:37;0.85;;;0.63;;
48552;SDS011;34335;51.566;6.994;2022-09-09T09:57:07;1.15;;;0.45;;
48552;SDS011;34335;51.566;6.994;2022-09-09T09:59:35;3.50;;;0.75;;
48552;SDS011;34335;51.566;6.994;2022-09-09T10:02:15;0.80;;;0.40;;
48552;SDS011;34335;51.566;6.994;2022-09-09T10:04:40;0.57;;;0.45;;
48552;SDS011;34335;51.566;6.994;2022-09-09T10:07:13;3.88;;;0.70;;
48552;SDS011;34335;51.566;6.994;2022-09-09T10:09:43;0.75;;;0.50;;
48552;SDS011;34335;51.566;6.994;2022-09-09T10:20:41;4.65;;;0.70;;
48552;SDS011;34335;51.566;6.994;2022-09-09T10:23:30;3.22;;;0.52;;
48552;SDS011;34335;51.566;6.994;2022-09-09T10:45:58;5.30;;;0.73;;
48552;SDS011;34335;51.566;6.994;2022-09-09T10:51:26;0.60;;;0.40;;
48552;SDS011;34335;51.566;6.994;2022-09-09T10:56:28;1.30;;;0.60;;
48552;SDS011;34335;51.566;6.994;2022-09-09T10:59:10;0.63;;;0.43;;
48552;SDS011;34335;51.566;6.994;2022-09-09T11:01:43;1.23;;;0.60;;
48552;SDS011;34335;51.566;6.994;2022-09-09T11:04:19;0.30;;;0.30;;
48552;SDS011;34335;51.566;6.994;2022-09-09T11:06:49;0.28;;;0.28;;
48552;SDS011;34335;51.566;6.994;2022-09-09T11:09:19;1.90;;;0.40;;
48552;SDS011;34335;51.566;6.994;2022-09-09T11:17:06;1.35;;;0.40;;
48552;SDS011;34335;51.566;6.994;2022-09-09T11:19:38;0.38;;;0.35;;
48552;SDS011;34335;51.566;6.994;2022-09-09T11:24:38;0.63;;;0.40;;
48552;SDS011;34335;51.566;6.994;2022-09-09T11:27:15;1.52;;;0.50;;
48552;SDS011;34335;51.566;6.994;2022-09-09T11:40:37;1.67;;;0.50;;
48552;SDS011;34335;51.566;6.994;2022-09-09T11:43:04;2.00;;;0.70;;
48552;SDS011;34335;51.566;6.994;2022-09-09T11:45:34;2.85;;;0.77;;
48552;SDS011;34335;51.566;6.994;2022-09-09T11:48:00;1.30;;;0.68;;
48552;SDS011;34335;51.566;6.994;2022-09-09T11:50:29;2.80;;;0.57;;
48552;SDS011;34335;51.566;6.994;2022-09-09T11:55:47;1.50;;;0.60;;
48552;SDS011;34335;51.566;6.994;2022-09-09T11:58:24;2.53;;;0.57;;
48552;SDS011;34335;51.566;6.994;2022-09-09T12:00:49;1.33;;;0.40;;
48552;SDS011;34335;51.566;6.994;2022-09-09T12:06:25;3.20;;;0.65;;
48552;SDS011;34335;51.566;6.994;2022-09-09T12:08:57;1.55;;;0.70;;
48552;SDS011;34335;51.566;6.994;2022-09-09T12:11:31;0.93;;;0.57;;
48552;SDS011;34335;51.566;6.994;2022-09-09T12:13:57;1.83;;;0.60;;
48552;SDS011;34335;51.566;6.994;2022-09-09T12:21:51;0.82;;;0.73;;
48552;SDS011;34335;51.566;6.994;2022-09-09T12:24:35;0.68;;;0.40;;
48552;SDS011;34335;51.566;6.994;2022-09-09T12:27:07;0.73;;;0.45;;
48552;SDS011;34335;51.566;6.994;2022-09-09T12:30:15;0.82;;;0.57;;
48552;SDS011;34335;51.566;6.994;2022-09-09T12:32:39;0.75;;;0.47;;
48552;SDS011;34335;51.566;6.994;2022-09-09T12:37:49;0.30;;;0.30;;
48552;SDS011;34335;51.566;6.994;2022-09-09T12:40:31;0.50;;;0.40;;
48552;SDS011;34335;51.566;6.994;2022-09-09T12:43:00;1.98;;;0.63;;
48552;SDS011;34335;51.566;6.994;2022-09-09T12:45:28;0.82;;;0.40;;
48552;SDS011;34335;51.566;6.994;2022-09-09T12:50:32;6.72;;;0.60;;
48552;SDS011;34335;51.566;6.994;2022-09-09T12:53:10;0.20;;;0.20;;
48552;SDS011;34335;51.566;6.994;2022-09-09T12:55:48;0.52;;;0.32;;
48552;SDS011;34335;51.566;6.994;2022-09-09T12:58:17;0.38;;;0.38;;
48552;SDS011;34335;51.566;6.994;2022-09-09T13:00:53;0.43;;;0.40;;
48552;SDS011;34335;51.566;6.994;2022-09-09T13:03:21;0.52;;;0.40;;
48552;SDS011;34335;51.566;6.994;2022-09-09T13:05:47;0.60;;;0.40;;
48552;SDS011;34335;51.566;6.994;2022-09-09T13:08:13;1.17;;;0.57;;
48552;SDS011;34335;51.566;6.994;2022-09-09T13:10:46;0.40;;;0.35;;
48552;SDS011;34335;51.566;6.994;2022-09-09T13:13:21;0.65;;;0.40;;
48552;SDS011;34335;51.566;6.994;2022-09-09T13:15:54;1.15;;;0.50;;
48552;SDS011;34335;51.566;6.994;2022-09-09T13:18:40;1.77;;;0.30;;
48552;SDS011;34335;51.566;6.994;2022-09-09T13:21:07;0.65;;;0.50;;
48552;SDS011;34335;51.566;6.994;2022-09-09T13:23:33;0.80;;;0.47;;
48552;SDS011;34335;51.566;6.994;2022-09-09T13:26:01;2.28;;;0.38;;
48552;SDS011;34335;51.566;6.994;2022-09-09T13:28:29;4.18;;;0.73;;
48552;SDS011;34335;51.566;6.994;2022-09-09T13:30:56;0.60;;;0.40;;
48552;SDS011;34335;51.566;6.994;2022-09-09T13:33:32;1.52;;;0.70;;
48552;SDS011;34335;51.566;6.994;2022-09-09T13:36:05;1.85;;;0.57;;
48552;SDS011;34335;51.566;6.994;2022-09-09T13:38:33;3.08;;;0.50;;
48552;SDS011;34335;51.566;6.994;2022-09-09T13:41:09;0.40;;;0.38;;
48552;SDS011;34335;51.566;6.994;2022-09-09T13:43:53;0.82;;;0.40;;
48552;SDS011;34335;51.566;6.994;2022-09-09T13:46:36;1.05;;;0.50;;
48552;SDS011;34335;51.566;6.994;2022-09-09T13:51:35;0.30;;;0.30;;
48552;SDS011;34335;51.566;6.994;2022-09-09T13:54:05;2.00;;;0.50;;
48552;SDS011;34335;51.566;6.994;2022-09-09T13:56:34;1.15;;;0.50;;
48552;SDS011;34335;51.566;6.994;2022-09-09T13:59:00;0.60;;;0.40;;
48552;SDS011;34335;51.566;6.994;2022-09-09T14:01:26;0.45;;;0.40;;
48552;SDS011;34335;51.566;6.994;2022-09-09T14:03:52;2.78;;;0.55;;
48552;SDS011;34335;51.566;6.994;2022-09-09T14:06:18;1.70;;;0.63;;
48552;SDS011;34335;51.566;6.994;2022-09-09T14:08:44;1.42;;;0.60;;
48552;SDS011;34335;51.566;6.994;2022-09-09T14:11:11;1.50;;;0.47;;
48552;SDS011;34335;51.566;6.994;2022-09-09T14:13:38;0.50;;;0.30;;
48552;SDS011;34335;51.566;6.994;2022-09-09T14:16:03;4.25;;;0.75;;
48552;SDS011;34335;51.566;6.994;2022-09-09T14:18:29;1.02;;;0.60;;
48552;SDS011;34335;51.566;6.994;2022-09-09T14:20:54;2.00;;;0.93;;
48552;SDS011;34335;51.566;6.994;2022-09-09T14:23:19;0.80;;;0.55;;
48552;SDS011;34335;51.566;6.994;2022-09-09T14:25:46;1.52;;;0.63;;
48552;SDS011;34335;51.566;6.994;2022-09-09T14:28:13;2.30;;;0.85;;
48552;SDS011;34335;51.566;6.994;2022-09-09T14:30:40;1.00;;;0.52;;
48552;SDS011;34335;51.566;6.994;2022-09-09T14:33:07;0.90;;;0.55;;
48552;SDS011;34335;51.566;6.994;2022-09-09T14:35:34;0.60;;;0.50;;
48552;SDS011;34335;51.566;6.994;2022-09-09T14:37:59;0.80;;;0.50;;
48552;SDS011;34335;51.566;6.994;2022-09-09T14:40:26;0.52;;;0.40;;
48552;SDS011;34335;51.566;6.994;2022-09-09T14:42:52;0.43;;;0.38;;
48552;SDS011;34335;51.566;6.994;2022-09-09T14:45:17;0.68;;;0.50;;
48552;SDS011;34335;51.566;6.994;2022-09-09T14:47:43;0.97;;;0.50;;
48552;SDS011;34335;51.566;6.994;2022-09-09T14:50:08;1.03;;;0.60;;
48552;SDS011;34335;51.566;6.994;2022-09-09T14:52:33;0.88;;;0.63;;
48552;SDS011;34335;51.566;6.994;2022-09-09T14:54:59;0.47;;;0.47;;
48552;SDS011;34335;51.566;6.994;2022-09-09T14:57:24;1.10;;;0.30;;
48552;SDS011;34335;51.566;6.994;2022-09-09T14:59:50;0.57;;;0.50;;
48552;SDS011;34335;51.566;6.994;2022-09-09T15:02:15;2.10;;;0.60;;
48552;SDS011;34335;51.566;6.994;2022-09-09T15:04:41;0.85;;;0.47;;
48552;SDS011;34335;51.566;6.994;2022-09-09T15:07:06;0.40;;;0.40;;
48552;SDS011;34335;51.566;6.994;2022-09-09T15:09:32;0.43;;;0.33;;
48552;SDS011;34335;51.566;6.994;2022-09-09T15:11:57;1.07;;;0.60;;
48552;SDS011;34335;51.566;6.994;2022-09-09T15:14:22;0.95;;;0.60;;
48552;SDS011;34335;51.566;6.994;2022-09-09T15:16:48;1.17;;;0.68;;
48552;SDS011;34335;51.566;6.994;2022-09-09T15:19:13;1.10;;;0.37;;
48552;SDS011;34335;51.566;6.994;2022-09-09T15:21:38;1.90;;;0.43;;
48552;SDS011;34335;51.566;6.994;2022-09-09T15:24:04;0.30;;;0.30;;
48552;SDS011;34335;51.566;6.994;2022-09-09T15:26:30;0.43;;;0.38;;
48552;SDS011;34335;51.566;6.994;2022-09-09T15:28:55;0.30;;;0.30;;
48552;SDS011;34335;51.566;6.994;2022-09-09T15:31:24;0.45;;;0.30;;
48552;SDS011;34335;51.566;6.994;2022-09-09T15:33:54;0.95;;;0.45;;
48552;SDS011;34335;51.566;6.994;2022-09-09T15:36:26;2.28;;;0.60;;
48552;SDS011;34335;51.566;6.994;2022-09-09T15:38:53;1.10;;;0.50;;
48552;SDS011;34335;51.566;6.994;2022-09-09T15:41:19;1.33;;;0.50;;
48552;SDS011;34335;51.566;6.994;2022-09-09T15:43:47;0.68;;;0.50;;
48552;SDS011;34335;51.566;6.994;2022-09-09T15:48:42;0.83;;;0.60;;
48552;SDS011;34335;51.566;6.994;2022-09-09T15:51:09;1.08;;;0.50;;
48552;SDS011;34335;51.566;6.994;2022-09-09T15:53:35;0.93;;;0.50;;
48552;SDS011;34335;51.566;6.994;2022-09-09T15:56:02;0.63;;;0.40;;
48552;SDS011;34335;51.566;6.994;2022-09-09T15:58:29;0.40;;;0.40;;
48552;SDS011;34335;51.566;6.994;2022-09-09T16:01:01;0.70;;;0.47;;
48552;SDS011;34335;51.566;6.994;2022-09-09T16:03:38;0.95;;;0.55;;
48552;SDS011;34335;51.566;6.994;2022-09-09T16:06:06;1.45;;;0.70;;
48552;SDS011;34335;51.566;6.994;2022-09-09T16:08:39;1.42;;;0.55;;
48552;SDS011;34335;51.566;6.994;2022-09-09T16:11:13;2.35;;;0.60;;
48552;SDS011;34335;51.566;6.994;2022-09-09T16:13:44;1.25;;;0.63;;
48552;SDS011;34335;51.566;6.994;2022-09-09T16:16:12;1.92;;;0.50;;
48552;SDS011;34335;51.566;6.994;2022-09-09T16:18:39;1.20;;;0.85;;
48552;SDS011;34335;51.566;6.994;2022-09-09T16:21:06;1.95;;;0.73;;
48552;SDS011;34335;51.566;6.994;2022-09-09T16:23:34;1.50;;;0.70;;
48552;SDS011;34335;51.566;6.994;2022-09-09T16:26:00;1.35;;;0.60;;
48552;SDS011;34335;51.566;6.994;2022-09-09T16:28:26;1.25;;;0.55;;
48552;SDS011;34335;51.566;6.994;2022-09-09T16:30:52;1.40;;;0.47;;
48552;SDS011;34335;51.566;6.994;2022-09-09T16:33:17;0.98;;;0.70;;
48552;SDS011;34335;51.566;6.994;2022-09-09T16:35:43;1.77;;;0.50;;
48552;SDS011;34335;51.566;6.994;2022-09-09T16:38:09;1.38;;;0.65;;
48552;SDS011;34335;51.566;6.994;2022-09-09T16:40:35;1.00;;;0.55;;
48552;SDS011;34335;51.566;6.994;2022-09-09T16:43:01;1.05;;;0.50;;
48552;SDS011;34335;51.566;6.994;2022-09-09T16:45:27;0.50;;;0.40;;
48552;SDS011;34335;51.566;6.994;2022-09-09T16:47:52;1.58;;;0.60;;
48552;SDS011;34335;51.566;6.994;2022-09-09T16:50:18;0.63;;;0.40;;
48552;SDS011;34335;51.566;6.994;2022-09-09T16:52:43;0.30;;;0.30;;
48552;SDS011;34335;51.566;6.994;2022-09-09T16:55:08;0.87;;;0.50;;
48552;SDS011;34335;51.566;6.994;2022-09-09T16:57:34;0.95;;;0.50;;
48552;SDS011;34335;51.566;6.994;2022-09-09T16:59:59;0.52;;;0.43;;
48552;SDS011;34335;51.566;6.994;2022-09-09T17:02:26;0.40;;;0.40;;
48552;SDS011;34335;51.566;6.994;2022-09-09T17:04:51;0.88;;;0.50;;
48552;SDS011;34335;51.566;6.994;2022-09-09T17:07:16;0.50;;;0.40;;
48552;SDS011;34335;51.566;6.994;2022-09-09T17:09:43;1.15;;;0.55;;
48552;SDS011;34335;51.566;6.994;2022-09-09T17:12:10;0.63;;;0.55;;